Rechercher aéroport 
image banner adimage banner adimage banner ad
image banner ad

5CA7 - Agro-West

Situé à Five Points, United States

ICAO - 5CA7, IATA -

Données fournies par Airmate  

Information générale

Coordonnées: N36°20'10" W120°14'51"
Élévation : 335 feet MSL.
Variation magnétique : 15° East
Voir autres Aéroports à California

Données opérationnelles

Special qualification required
Heure actuelle UTC:
Heure actuelle locale:
Météo à : KNLC - Lemoore Nas (Reeves Fld) ( 26 km )
METAR: KNLC 231456Z 25003KT 10SM FEW055 21/07 A2992 RMK AO2 SLP130 FU FEW055 RH/41 T02060072 50005
TAF: KNLC TAF 2315/2415 VRB06KT 9999 FEW050 QNH2980INS TEMPO 2316/2322 33007KT 9000 HZ FU SCT050 FM232200 01009KT 9000 HZ FU SCT040 QNH2979INS T34/2323Z T17/2413Z FS30067
Voir NOTAMs / SUP AIP / TFR affectant cet aéroport [VIEW]
Fréquences de communication: [VIEW]

Pistes:

Identifiant RWYQFULongueur (ft)Largeur (ft)SurfaceLDA (ft)
16300040ASPH
34300040ASPH

Coordonnées de l'aéroport

Adresse: Five Points United States

Vue satellite de 5CA7